sensor_id;sensor_type;location;lat;lon;timestamp;P1;durP1;ratioP1;P2;durP2;ratioP2
5646;SDS011;2845;48.626;9.362;2023-07-29T00:02:05;0.50;;;0.20;;
5646;SDS011;2845;48.626;9.362;2023-07-29T00:04:40;0.60;;;0.30;;
5646;SDS011;2845;48.626;9.362;2023-07-29T00:07:14;0.63;;;0.28;;
5646;SDS011;2845;48.626;9.362;2023-07-29T00:09:48;0.50;;;0.20;;
5646;SDS011;2845;48.626;9.362;2023-07-29T00:12:27;0.50;;;0.20;;
5646;SDS011;2845;48.626;9.362;2023-07-29T00:15:01;0.52;;;0.30;;
5646;SDS011;2845;48.626;9.362;2023-07-29T00:17:37;1.30;;;0.50;;
5646;SDS011;2845;48.626;9.362;2023-07-29T00:20:12;0.73;;;0.32;;
5646;SDS011;2845;48.626;9.362;2023-07-29T00:22:46;1.10;;;0.28;;
5646;SDS011;2845;48.626;9.362;2023-07-29T00:25:21;0.88;;;0.30;;
5646;SDS011;2845;48.626;9.362;2023-07-29T00:27:56;1.20;;;0.40;;
5646;SDS011;2845;48.626;9.362;2023-07-29T00:30:30;0.47;;;0.20;;
5646;SDS011;2845;48.626;9.362;2023-07-29T00:33:06;0.73;;;0.30;;
5646;SDS011;2845;48.626;9.362;2023-07-29T00:35:40;0.20;;;0.10;;
5646;SDS011;2845;48.626;9.362;2023-07-29T00:38:15;3.47;;;0.35;;
5646;SDS011;2845;48.626;9.362;2023-07-29T00:40:50;0.70;;;0.30;;
5646;SDS011;2845;48.626;9.362;2023-07-29T00:43:24;0.50;;;0.30;;
5646;SDS011;2845;48.626;9.362;2023-07-29T00:45:59;0.30;;;0.20;;
5646;SDS011;2845;48.626;9.362;2023-07-29T00:48:35;0.60;;;0.25;;
5646;SDS011;2845;48.626;9.362;2023-07-29T00:51:10;0.70;;;0.30;;
5646;SDS011;2845;48.626;9.362;2023-07-29T00:53:44;0.90;;;0.40;;
5646;SDS011;2845;48.626;9.362;2023-07-29T00:56:18;0.40;;;0.22;;
5646;SDS011;2845;48.626;9.362;2023-07-29T00:58:53;0.63;;;0.17;;
5646;SDS011;2845;48.626;9.362;2023-07-29T01:01:32;0.65;;;0.25;;
5646;SDS011;2845;48.626;9.362;2023-07-29T01:04:08;0.52;;;0.28;;
5646;SDS011;2845;48.626;9.362;2023-07-29T01:06:46;0.70;;;0.40;;
5646;SDS011;2845;48.626;9.362;2023-07-29T01:09:30;0.45;;;0.20;;
5646;SDS011;2845;48.626;9.362;2023-07-29T01:12:12;0.65;;;0.30;;
5646;SDS011;2845;48.626;9.362;2023-07-29T01:14:59;1.35;;;0.38;;
5646;SDS011;2845;48.626;9.362;2023-07-29T01:17:42;1.50;;;0.43;;
5646;SDS011;2845;48.626;9.362;2023-07-29T01:20:24;0.80;;;0.30;;
5646;SDS011;2845;48.626;9.362;2023-07-29T01:22:59;0.55;;;0.30;;
5646;SDS011;2845;48.626;9.362;2023-07-29T01:25:34;3.35;;;0.32;;
5646;SDS011;2845;48.626;9.362;2023-07-29T01:28:09;1.23;;;0.30;;
5646;SDS011;2845;48.626;9.362;2023-07-29T01:30:43;0.63;;;0.40;;
5646;SDS011;2845;48.626;9.362;2023-07-29T01:33:20;2.53;;;0.35;;
5646;SDS011;2845;48.626;9.362;2023-07-29T01:36:01;0.70;;;0.30;;
5646;SDS011;2845;48.626;9.362;2023-07-29T01:38:40;1.77;;;0.32;;
5646;SDS011;2845;48.626;9.362;2023-07-29T01:41:17;0.73;;;0.40;;
5646;SDS011;2845;48.626;9.362;2023-07-29T01:43:54;1.77;;;0.22;;
5646;SDS011;2845;48.626;9.362;2023-07-29T01:46:31;1.10;;;0.40;;
5646;SDS011;2845;48.626;9.362;2023-07-29T01:49:07;0.47;;;0.40;;
5646;SDS011;2845;48.626;9.362;2023-07-29T01:51:41;0.93;;;0.30;;
5646;SDS011;2845;48.626;9.362;2023-07-29T01:54:16;1.60;;;0.30;;
5646;SDS011;2845;48.626;9.362;2023-07-29T01:56:51;1.08;;;0.30;;
5646;SDS011;2845;48.626;9.362;2023-07-29T01:59:28;2.05;;;0.38;;
5646;SDS011;2845;48.626;9.362;2023-07-29T02:02:02;0.63;;;0.40;;
5646;SDS011;2845;48.626;9.362;2023-07-29T02:04:37;0.75;;;0.20;;
5646;SDS011;2845;48.626;9.362;2023-07-29T02:07:11;0.57;;;0.30;;
5646;SDS011;2845;48.626;9.362;2023-07-29T02:09:45;0.52;;;0.30;;
5646;SDS011;2845;48.626;9.362;2023-07-29T02:12:21;0.82;;;0.30;;
5646;SDS011;2845;48.626;9.362;2023-07-29T02:14:57;0.75;;;0.30;;
5646;SDS011;2845;48.626;9.362;2023-07-29T02:17:31;0.73;;;0.40;;
5646;SDS011;2845;48.626;9.362;2023-07-29T02:20:06;0.65;;;0.30;;
5646;SDS011;2845;48.626;9.362;2023-07-29T02:22:43;1.13;;;0.32;;
5646;SDS011;2845;48.626;9.362;2023-07-29T02:25:17;0.30;;;0.20;;
5646;SDS011;2845;48.626;9.362;2023-07-29T02:27:53;1.63;;;0.77;;
5646;SDS011;2845;48.626;9.362;2023-07-29T02:30:28;0.68;;;0.30;;
5646;SDS011;2845;48.626;9.362;2023-07-29T02:33:02;0.45;;;0.20;;
5646;SDS011;2845;48.626;9.362;2023-07-29T02:35:37;0.35;;;0.30;;
5646;SDS011;2845;48.626;9.362;2023-07-29T02:38:11;1.13;;;0.80;;
5646;SDS011;2845;48.626;9.362;2023-07-29T02:40:45;1.17;;;0.30;;
5646;SDS011;2845;48.626;9.362;2023-07-29T02:43:21;2.40;;;0.30;;
5646;SDS011;2845;48.626;9.362;2023-07-29T02:45:58;0.60;;;0.32;;
5646;SDS011;2845;48.626;9.362;2023-07-29T02:48:32;0.77;;;0.30;;
5646;SDS011;2845;48.626;9.362;2023-07-29T02:51:06;0.60;;;0.30;;
5646;SDS011;2845;48.626;9.362;2023-07-29T02:53:40;0.60;;;0.30;;
5646;SDS011;2845;48.626;9.362;2023-07-29T02:56:15;0.60;;;0.30;;
5646;SDS011;2845;48.626;9.362;2023-07-29T02:58:50;0.50;;;0.28;;
5646;SDS011;2845;48.626;9.362;2023-07-29T03:01:26;0.28;;;0.20;;
5646;SDS011;2845;48.626;9.362;2023-07-29T03:04:01;0.90;;;0.30;;
5646;SDS011;2845;48.626;9.362;2023-07-29T03:06:35;0.68;;;0.25;;
5646;SDS011;2845;48.626;9.362;2023-07-29T03:09:10;0.52;;;0.20;;
5646;SDS011;2845;48.626;9.362;2023-07-29T03:11:44;0.40;;;0.20;;
5646;SDS011;2845;48.626;9.362;2023-07-29T03:14:19;0.45;;;0.30;;
5646;SDS011;2845;48.626;9.362;2023-07-29T03:16:54;0.73;;;0.40;;
5646;SDS011;2845;48.626;9.362;2023-07-29T03:19:30;0.63;;;0.40;;
5646;SDS011;2845;48.626;9.362;2023-07-29T03:22:04;0.88;;;0.30;;
5646;SDS011;2845;48.626;9.362;2023-07-29T03:24:39;0.43;;;0.20;;
5646;SDS011;2845;48.626;9.362;2023-07-29T03:27:14;0.88;;;0.20;;
5646;SDS011;2845;48.626;9.362;2023-07-29T03:29:50;0.20;;;0.15;;
5646;SDS011;2845;48.626;9.362;2023-07-29T03:32:24;0.70;;;0.20;;
5646;SDS011;2845;48.626;9.362;2023-07-29T03:34:59;1.08;;;0.20;;
5646;SDS011;2845;48.626;9.362;2023-07-29T03:37:33;1.85;;;0.35;;
5646;SDS011;2845;48.626;9.362;2023-07-29T03:40:07;0.75;;;0.40;;
5646;SDS011;2845;48.626;9.362;2023-07-29T03:42:42;0.75;;;0.28;;
5646;SDS011;2845;48.626;9.362;2023-07-29T03:45:18;0.50;;;0.20;;
5646;SDS011;2845;48.626;9.362;2023-07-29T03:47:52;0.90;;;0.30;;
5646;SDS011;2845;48.626;9.362;2023-07-29T03:50:28;1.38;;;0.40;;
5646;SDS011;2845;48.626;9.362;2023-07-29T03:53:03;0.90;;;0.40;;
5646;SDS011;2845;48.626;9.362;2023-07-29T03:55:37;0.50;;;0.35;;
5646;SDS011;2845;48.626;9.362;2023-07-29T03:58:11;2.60;;;0.30;;
5646;SDS011;2845;48.626;9.362;2023-07-29T04:00:47;1.13;;;0.47;;
5646;SDS011;2845;48.626;9.362;2023-07-29T04:03:21;0.75;;;0.30;;
5646;SDS011;2845;48.626;9.362;2023-07-29T04:05:56;0.47;;;0.30;;
5646;SDS011;2845;48.626;9.362;2023-07-29T04:08:30;2.42;;;0.38;;
5646;SDS011;2845;48.626;9.362;2023-07-29T04:11:04;0.50;;;0.30;;
5646;SDS011;2845;48.626;9.362;2023-07-29T04:13:38;1.10;;;0.50;;
5646;SDS011;2845;48.626;9.362;2023-07-29T04:16:15;1.17;;;0.30;;
5646;SDS011;2845;48.626;9.362;2023-07-29T04:18:49;0.98;;;0.30;;
5646;SDS011;2845;48.626;9.362;2023-07-29T04:21:23;1.02;;;0.30;;
5646;SDS011;2845;48.626;9.362;2023-07-29T04:23:58;0.60;;;0.30;;
5646;SDS011;2845;48.626;9.362;2023-07-29T04:26:32;0.60;;;0.45;;
5646;SDS011;2845;48.626;9.362;2023-07-29T04:29:07;2.03;;;0.73;;
5646;SDS011;2845;48.626;9.362;2023-07-29T04:31:42;0.55;;;0.25;;
5646;SDS011;2845;48.626;9.362;2023-07-29T04:34:17;1.02;;;0.45;;
5646;SDS011;2845;48.626;9.362;2023-07-29T04:36:51;1.38;;;0.50;;
5646;SDS011;2845;48.626;9.362;2023-07-29T04:39:26;1.20;;;0.38;;
5646;SDS011;2845;48.626;9.362;2023-07-29T04:42:00;0.68;;;0.30;;
5646;SDS011;2845;48.626;9.362;2023-07-29T04:44:34;1.00;;;0.52;;
5646;SDS011;2845;48.626;9.362;2023-07-29T04:47:10;0.75;;;0.45;;
5646;SDS011;2845;48.626;9.362;2023-07-29T04:49:44;0.98;;;0.40;;
5646;SDS011;2845;48.626;9.362;2023-07-29T04:52:18;0.88;;;0.30;;
5646;SDS011;2845;48.626;9.362;2023-07-29T04:54:54;0.88;;;0.30;;
5646;SDS011;2845;48.626;9.362;2023-07-29T04:57:29;2.45;;;0.50;;
5646;SDS011;2845;48.626;9.362;2023-07-29T05:00:04;1.15;;;0.60;;
5646;SDS011;2845;48.626;9.362;2023-07-29T05:02:41;1.65;;;0.93;;
5646;SDS011;2845;48.626;9.362;2023-07-29T05:05:15;1.88;;;0.73;;
5646;SDS011;2845;48.626;9.362;2023-07-29T05:07:50;2.03;;;0.90;;
5646;SDS011;2845;48.626;9.362;2023-07-29T05:10:24;1.95;;;0.60;;
5646;SDS011;2845;48.626;9.362;2023-07-29T05:12:58;1.45;;;0.70;;
5646;SDS011;2845;48.626;9.362;2023-07-29T05:15:32;1.33;;;0.90;;
5646;SDS011;2845;48.626;9.362;2023-07-29T05:18:08;1.55;;;0.65;;
5646;SDS011;2845;48.626;9.362;2023-07-29T05:20:42;1.10;;;0.70;;
5646;SDS011;2845;48.626;9.362;2023-07-29T05:23:16;2.75;;;0.85;;
5646;SDS011;2845;48.626;9.362;2023-07-29T05:25:50;1.83;;;0.70;;
5646;SDS011;2845;48.626;9.362;2023-07-29T05:28:25;1.55;;;0.70;;
5646;SDS011;2845;48.626;9.362;2023-07-29T05:31:00;1.45;;;0.98;;
5646;SDS011;2845;48.626;9.362;2023-07-29T05:33:36;1.88;;;1.08;;
5646;SDS011;2845;48.626;9.362;2023-07-29T05:36:10;2.78;;;0.93;;
5646;SDS011;2845;48.626;9.362;2023-07-29T05:38:44;1.88;;;0.68;;
5646;SDS011;2845;48.626;9.362;2023-07-29T05:41:19;0.93;;;0.60;;
5646;SDS011;2845;48.626;9.362;2023-07-29T05:43:53;1.42;;;0.70;;
5646;SDS011;2845;48.626;9.362;2023-07-29T05:46:29;1.80;;;0.50;;
5646;SDS011;2845;48.626;9.362;2023-07-29T05:49:04;1.80;;;0.75;;
5646;SDS011;2845;48.626;9.362;2023-07-29T05:51:39;1.33;;;0.52;;
5646;SDS011;2845;48.626;9.362;2023-07-29T05:54:14;1.42;;;0.47;;
5646;SDS011;2845;48.626;9.362;2023-07-29T05:56:48;1.95;;;0.88;;
5646;SDS011;2845;48.626;9.362;2023-07-29T05:59:22;1.30;;;0.60;;
5646;SDS011;2845;48.626;9.362;2023-07-29T06:01:57;0.93;;;0.50;;
5646;SDS011;2845;48.626;9.362;2023-07-29T06:04:32;1.25;;;0.60;;
5646;SDS011;2845;48.626;9.362;2023-07-29T06:07:07;0.85;;;0.40;;
5646;SDS011;2845;48.626;9.362;2023-07-29T06:09:42;1.27;;;0.40;;
5646;SDS011;2845;48.626;9.362;2023-07-29T06:12:16;1.38;;;0.57;;
5646;SDS011;2845;48.626;9.362;2023-07-29T06:14:51;1.00;;;0.60;;
5646;SDS011;2845;48.626;9.362;2023-07-29T06:17:26;2.03;;;0.68;;
5646;SDS011;2845;48.626;9.362;2023-07-29T06:20:01;1.48;;;0.50;;
5646;SDS011;2845;48.626;9.362;2023-07-29T06:22:36;1.13;;;0.60;;
5646;SDS011;2845;48.626;9.362;2023-07-29T06:25:11;1.75;;;0.50;;
5646;SDS011;2845;48.626;9.362;2023-07-29T06:27:45;1.15;;;0.40;;
5646;SDS011;2845;48.626;9.362;2023-07-29T06:30:19;1.88;;;0.60;;
5646;SDS011;2845;48.626;9.362;2023-07-29T06:32:53;1.00;;;0.52;;
5646;SDS011;2845;48.626;9.362;2023-07-29T06:35:32;0.50;;;0.40;;
5646;SDS011;2845;48.626;9.362;2023-07-29T06:38:06;0.82;;;0.40;;
5646;SDS011;2845;48.626;9.362;2023-07-29T06:40:40;0.90;;;0.40;;
5646;SDS011;2845;48.626;9.362;2023-07-29T06:43:15;0.95;;;0.40;;
5646;SDS011;2845;48.626;9.362;2023-07-29T06:45:49;0.85;;;0.40;;
5646;SDS011;2845;48.626;9.362;2023-07-29T06:48:24;1.73;;;0.63;;
5646;SDS011;2845;48.626;9.362;2023-07-29T06:50:59;1.25;;;0.60;;
5646;SDS011;2845;48.626;9.362;2023-07-29T06:53:34;1.13;;;0.57;;
5646;SDS011;2845;48.626;9.362;2023-07-29T06:56:08;0.90;;;0.60;;
5646;SDS011;2845;48.626;9.362;2023-07-29T06:58:43;1.58;;;0.73;;
5646;SDS011;2845;48.626;9.362;2023-07-29T07:01:17;1.08;;;0.38;;
5646;SDS011;2845;48.626;9.362;2023-07-29T07:03:51;0.90;;;0.50;;
5646;SDS011;2845;48.626;9.362;2023-07-29T07:06:28;0.95;;;0.50;;
5646;SDS011;2845;48.626;9.362;2023-07-29T07:09:02;0.85;;;0.50;;
5646;SDS011;2845;48.626;9.362;2023-07-29T07:11:36;6.38;;;0.80;;
5646;SDS011;2845;48.626;9.362;2023-07-29T07:14:10;3.67;;;0.95;;
5646;SDS011;2845;48.626;9.362;2023-07-29T07:16:45;1.38;;;0.50;;
5646;SDS011;2845;48.626;9.362;2023-07-29T07:19:19;1.63;;;0.80;;
5646;SDS011;2845;48.626;9.362;2023-07-29T07:21:55;4.72;;;0.80;;
5646;SDS011;2845;48.626;9.362;2023-07-29T07:24:29;4.10;;;0.98;;
5646;SDS011;2845;48.626;9.362;2023-07-29T07:27:03;2.35;;;0.73;;
5646;SDS011;2845;48.626;9.362;2023-07-29T07:29:38;1.80;;;0.90;;
5646;SDS011;2845;48.626;9.362;2023-07-29T07:32:12;1.65;;;0.70;;
5646;SDS011;2845;48.626;9.362;2023-07-29T07:34:46;2.58;;;0.75;;
5646;SDS011;2845;48.626;9.362;2023-07-29T07:37:22;1.40;;;0.75;;
5646;SDS011;2845;48.626;9.362;2023-07-29T07:39:56;2.42;;;0.70;;
5646;SDS011;2845;48.626;9.362;2023-07-29T07:42:30;1.83;;;0.90;;
5646;SDS011;2845;48.626;9.362;2023-07-29T07:45:04;1.20;;;0.45;;
5646;SDS011;2845;48.626;9.362;2023-07-29T07:47:39;3.20;;;1.00;;
5646;SDS011;2845;48.626;9.362;2023-07-29T07:50:13;1.27;;;0.57;;
5646;SDS011;2845;48.626;9.362;2023-07-29T07:52:49;1.50;;;0.75;;
5646;SDS011;2845;48.626;9.362;2023-07-29T07:55:23;1.08;;;0.60;;
5646;SDS011;2845;48.626;9.362;2023-07-29T07:57:57;1.55;;;0.57;;
5646;SDS011;2845;48.626;9.362;2023-07-29T08:00:31;1.83;;;0.93;;
5646;SDS011;2845;48.626;9.362;2023-07-29T08:03:05;2.63;;;1.00;;
5646;SDS011;2845;48.626;9.362;2023-07-29T08:05:39;0.93;;;0.60;;
5646;SDS011;2845;48.626;9.362;2023-07-29T08:08:15;2.60;;;1.15;;
5646;SDS011;2845;48.626;9.362;2023-07-29T08:10:49;2.35;;;0.95;;
5646;SDS011;2845;48.626;9.362;2023-07-29T08:13:25;4.13;;;1.30;;
5646;SDS011;2845;48.626;9.362;2023-07-29T08:15:59;2.25;;;1.00;;
5646;SDS011;2845;48.626;9.362;2023-07-29T08:18:34;1.80;;;0.80;;
5646;SDS011;2845;48.626;9.362;2023-07-29T08:21:08;3.13;;;1.05;;
5646;SDS011;2845;48.626;9.362;2023-07-29T08:23:43;2.20;;;1.20;;
5646;SDS011;2845;48.626;9.362;2023-07-29T08:26:18;2.00;;;0.98;;
5646;SDS011;2845;48.626;9.362;2023-07-29T08:28:52;2.00;;;1.05;;
5646;SDS011;2845;48.626;9.362;2023-07-29T08:31:26;2.05;;;1.00;;
5646;SDS011;2845;48.626;9.362;2023-07-29T08:34:00;2.55;;;1.05;;
5646;SDS011;2845;48.626;9.362;2023-07-29T08:36:35;2.78;;;1.13;;
5646;SDS011;2845;48.626;9.362;2023-07-29T08:39:11;1.38;;;0.70;;
5646;SDS011;2845;48.626;9.362;2023-07-29T08:41:46;1.40;;;0.75;;
5646;SDS011;2845;48.626;9.362;2023-07-29T08:44:30;3.13;;;0.90;;
5646;SDS011;2845;48.626;9.362;2023-07-29T08:47:09;1.08;;;0.50;;
5646;SDS011;2845;48.626;9.362;2023-07-29T08:49:44;0.82;;;0.60;;
5646;SDS011;2845;48.626;9.362;2023-07-29T08:52:19;1.10;;;0.68;;
5646;SDS011;2845;48.626;9.362;2023-07-29T08:54:56;1.25;;;0.60;;
5646;SDS011;2845;48.626;9.362;2023-07-29T08:57:30;1.92;;;1.00;;
5646;SDS011;2845;48.626;9.362;2023-07-29T09:00:05;1.33;;;0.73;;
5646;SDS011;2845;48.626;9.362;2023-07-29T09:02:41;1.15;;;0.70;;
5646;SDS011;2845;48.626;9.362;2023-07-29T09:05:15;1.27;;;0.60;;
5646;SDS011;2845;48.626;9.362;2023-07-29T09:07:50;0.90;;;0.50;;
5646;SDS011;2845;48.626;9.362;2023-07-29T09:10:28;1.33;;;0.60;;
5646;SDS011;2845;48.626;9.362;2023-07-29T09:13:02;1.48;;;0.75;;
5646;SDS011;2845;48.626;9.362;2023-07-29T09:15:36;0.80;;;0.70;;
5646;SDS011;2845;48.626;9.362;2023-07-29T09:18:11;1.45;;;0.80;;
5646;SDS011;2845;48.626;9.362;2023-07-29T09:20:49;2.13;;;0.80;;
5646;SDS011;2845;48.626;9.362;2023-07-29T09:23:24;1.80;;;0.80;;
5646;SDS011;2845;48.626;9.362;2023-07-29T09:26:03;2.97;;;0.70;;
5646;SDS011;2845;48.626;9.362;2023-07-29T09:28:38;1.27;;;0.80;;
5646;SDS011;2845;48.626;9.362;2023-07-29T09:31:18;1.20;;;0.60;;
5646;SDS011;2845;48.626;9.362;2023-07-29T09:33:55;1.13;;;0.73;;
5646;SDS011;2845;48.626;9.362;2023-07-29T09:36:31;1.80;;;0.80;;
5646;SDS011;2845;48.626;9.362;2023-07-29T09:39:10;1.52;;;0.93;;
5646;SDS011;2845;48.626;9.362;2023-07-29T09:41:48;1.33;;;0.60;;
5646;SDS011;2845;48.626;9.362;2023-07-29T09:44:22;1.20;;;0.70;;
5646;SDS011;2845;48.626;9.362;2023-07-29T09:46:56;1.38;;;0.85;;
5646;SDS011;2845;48.626;9.362;2023-07-29T09:49:33;1.33;;;0.70;;
5646;SDS011;2845;48.626;9.362;2023-07-29T09:52:10;2.00;;;0.80;;
5646;SDS011;2845;48.626;9.362;2023-07-29T09:54:44;1.80;;;0.90;;
5646;SDS011;2845;48.626;9.362;2023-07-29T09:57:21;2.17;;;1.63;;
5646;SDS011;2845;48.626;9.362;2023-07-29T09:59:55;1.75;;;1.00;;
5646;SDS011;2845;48.626;9.362;2023-07-29T10:02:30;2.05;;;1.00;;
5646;SDS011;2845;48.626;9.362;2023-07-29T10:05:05;1.77;;;1.00;;
5646;SDS011;2845;48.626;9.362;2023-07-29T10:07:41;1.60;;;1.00;;
5646;SDS011;2845;48.626;9.362;2023-07-29T10:10:15;1.90;;;1.15;;
5646;SDS011;2845;48.626;9.362;2023-07-29T10:12:51;1.13;;;0.90;;
5646;SDS011;2845;48.626;9.362;2023-07-29T10:15:26;1.27;;;0.73;;
5646;SDS011;2845;48.626;9.362;2023-07-29T10:18:02;1.95;;;0.90;;
5646;SDS011;2845;48.626;9.362;2023-07-29T10:20:36;2.78;;;1.10;;
5646;SDS011;2845;48.626;9.362;2023-07-29T10:23:12;2.10;;;1.05;;
5646;SDS011;2845;48.626;9.362;2023-07-29T10:25:49;2.92;;;1.20;;
5646;SDS011;2845;48.626;9.362;2023-07-29T10:28:39;1.83;;;1.13;;
5646;SDS011;2845;48.626;9.362;2023-07-29T10:31:15;1.80;;;1.25;;
5646;SDS011;2845;48.626;9.362;2023-07-29T10:33:50;1.50;;;0.90;;
5646;SDS011;2845;48.626;9.362;2023-07-29T10:36:25;2.70;;;1.10;;
5646;SDS011;2845;48.626;9.362;2023-07-29T10:38:59;2.70;;;1.00;;
5646;SDS011;2845;48.626;9.362;2023-07-29T10:44:48;3.20;;;1.10;;
5646;SDS011;2845;48.626;9.362;2023-07-29T10:47:24;1.15;;;0.88;;
5646;SDS011;2845;48.626;9.362;2023-07-29T10:50:00;2.33;;;1.02;;
5646;SDS011;2845;48.626;9.362;2023-07-29T10:52:43;1.48;;;0.93;;
5646;SDS011;2845;48.626;9.362;2023-07-29T10:55:26;2.00;;;1.10;;
5646;SDS011;2845;48.626;9.362;2023-07-29T10:58:07;1.35;;;1.10;;
5646;SDS011;2845;48.626;9.362;2023-07-29T11:00:51;2.22;;;1.00;;
5646;SDS011;2845;48.626;9.362;2023-07-29T11:03:25;2.00;;;1.20;;
5646;SDS011;2845;48.626;9.362;2023-07-29T11:06:01;2.00;;;1.10;;
5646;SDS011;2845;48.626;9.362;2023-07-29T11:08:38;2.15;;;1.23;;
5646;SDS011;2845;48.626;9.362;2023-07-29T11:11:12;2.10;;;1.00;;
5646;SDS011;2845;48.626;9.362;2023-07-29T11:13:46;1.60;;;1.08;;
5646;SDS011;2845;48.626;9.362;2023-07-29T11:16:22;2.22;;;1.10;;
5646;SDS011;2845;48.626;9.362;2023-07-29T11:18:57;1.95;;;1.10;;
5646;SDS011;2845;48.626;9.362;2023-07-29T11:21:32;2.65;;;1.20;;
5646;SDS011;2845;48.626;9.362;2023-07-29T11:24:08;1.80;;;1.17;;
5646;SDS011;2845;48.626;9.362;2023-07-29T11:26:45;2.17;;;1.30;;
5646;SDS011;2845;48.626;9.362;2023-07-29T11:29:20;3.70;;;1.38;;
5646;SDS011;2845;48.626;9.362;2023-07-29T11:31:55;2.10;;;1.20;;
5646;SDS011;2845;48.626;9.362;2023-07-29T11:34:31;2.53;;;1.48;;
5646;SDS011;2845;48.626;9.362;2023-07-29T11:37:05;1.85;;;1.20;;
5646;SDS011;2845;48.626;9.362;2023-07-29T11:39:39;1.50;;;0.95;;
5646;SDS011;2845;48.626;9.362;2023-07-29T11:42:14;2.85;;;1.30;;
5646;SDS011;2845;48.626;9.362;2023-07-29T11:44:48;2.33;;;1.27;;
5646;SDS011;2845;48.626;9.362;2023-07-29T11:47:24;2.08;;;1.17;;
5646;SDS011;2845;48.626;9.362;2023-07-29T11:49:59;2.88;;;1.40;;
5646;SDS011;2845;48.626;9.362;2023-07-29T11:52:33;1.67;;;1.10;;
5646;SDS011;2845;48.626;9.362;2023-07-29T11:55:08;1.38;;;1.10;;
5646;SDS011;2845;48.626;9.362;2023-07-29T11:57:43;2.55;;;1.30;;
5646;SDS011;2845;48.626;9.362;2023-07-29T12:00:17;3.55;;;1.30;;
5646;SDS011;2845;48.626;9.362;2023-07-29T12:02:53;2.47;;;1.50;;
5646;SDS011;2845;48.626;9.362;2023-07-29T12:05:28;2.75;;;1.30;;
5646;SDS011;2845;48.626;9.362;2023-07-29T12:08:03;2.33;;;1.35;;
5646;SDS011;2845;48.626;9.362;2023-07-29T12:10:38;2.45;;;1.33;;
5646;SDS011;2845;48.626;9.362;2023-07-29T12:13:12;1.90;;;1.23;;
5646;SDS011;2845;48.626;9.362;2023-07-29T12:15:46;1.90;;;1.20;;
5646;SDS011;2845;48.626;9.362;2023-07-29T12:18:30;1.92;;;1.40;;
5646;SDS011;2845;48.626;9.362;2023-07-29T12:21:06;2.60;;;1.17;;
5646;SDS011;2845;48.626;9.362;2023-07-29T12:23:41;1.95;;;1.20;;
5646;SDS011;2845;48.626;9.362;2023-07-29T12:26:15;2.42;;;1.13;;
5646;SDS011;2845;48.626;9.362;2023-07-29T12:28:49;1.40;;;1.10;;
5646;SDS011;2845;48.626;9.362;2023-07-29T12:31:28;1.83;;;1.27;;
5646;SDS011;2845;48.626;9.362;2023-07-29T12:34:06;1.98;;;1.13;;
5646;SDS011;2845;48.626;9.362;2023-07-29T12:36:41;2.45;;;1.42;;
5646;SDS011;2845;48.626;9.362;2023-07-29T12:39:17;1.58;;;1.20;;
5646;SDS011;2845;48.626;9.362;2023-07-29T12:41:53;2.03;;;0.93;;
5646;SDS011;2845;48.626;9.362;2023-07-29T12:44:29;2.00;;;1.23;;
5646;SDS011;2845;48.626;9.362;2023-07-29T12:47:06;2.13;;;1.20;;
5646;SDS011;2845;48.626;9.362;2023-07-29T12:49:42;2.08;;;1.00;;
5646;SDS011;2845;48.626;9.362;2023-07-29T12:52:16;2.40;;;1.40;;
5646;SDS011;2845;48.626;9.362;2023-07-29T12:54:50;2.72;;;1.45;;
5646;SDS011;2845;48.626;9.362;2023-07-29T12:57:24;2.30;;;1.30;;
5646;SDS011;2845;48.626;9.362;2023-07-29T12:59:58;2.58;;;1.65;;
5646;SDS011;2845;48.626;9.362;2023-07-29T13:02:33;3.05;;;1.80;;
5646;SDS011;2845;48.626;9.362;2023-07-29T13:05:10;3.13;;;1.95;;
5646;SDS011;2845;48.626;9.362;2023-07-29T13:07:44;3.58;;;1.83;;
5646;SDS011;2845;48.626;9.362;2023-07-29T13:10:19;3.72;;;1.70;;
5646;SDS011;2845;48.626;9.362;2023-07-29T13:12:53;2.30;;;1.35;;
5646;SDS011;2845;48.626;9.362;2023-07-29T13:15:27;1.70;;;1.23;;
5646;SDS011;2845;48.626;9.362;2023-07-29T13:18:01;2.40;;;1.48;;
5646;SDS011;2845;48.626;9.362;2023-07-29T13:20:37;3.38;;;1.23;;
5646;SDS011;2845;48.626;9.362;2023-07-29T13:23:12;2.25;;;1.33;;
5646;SDS011;2845;48.626;9.362;2023-07-29T13:25:46;2.45;;;1.50;;
5646;SDS011;2845;48.626;9.362;2023-07-29T13:28:20;2.25;;;1.45;;
5646;SDS011;2845;48.626;9.362;2023-07-29T13:30:55;9.65;;;1.95;;
5646;SDS011;2845;48.626;9.362;2023-07-29T13:33:29;2.85;;;1.90;;
5646;SDS011;2845;48.626;9.362;2023-07-29T13:36:07;6.90;;;3.28;;
5646;SDS011;2845;48.626;9.362;2023-07-29T13:38:41;6.63;;;3.35;;
5646;SDS011;2845;48.626;9.362;2023-07-29T13:41:15;6.55;;;3.70;;
5646;SDS011;2845;48.626;9.362;2023-07-29T13:43:50;4.47;;;2.92;;
5646;SDS011;2845;48.626;9.362;2023-07-29T13:46:24;4.55;;;3.00;;
5646;SDS011;2845;48.626;9.362;2023-07-29T13:48:58;5.20;;;3.03;;
5646;SDS011;2845;48.626;9.362;2023-07-29T13:51:33;5.95;;;3.60;;
5646;SDS011;2845;48.626;9.362;2023-07-29T13:54:08;5.85;;;3.47;;
5646;SDS011;2845;48.626;9.362;2023-07-29T13:56:42;6.50;;;3.33;;
5646;SDS011;2845;48.626;9.362;2023-07-29T13:59:16;5.95;;;3.80;;
5646;SDS011;2845;48.626;9.362;2023-07-29T14:01:50;4.60;;;3.08;;
5646;SDS011;2845;48.626;9.362;2023-07-29T14:04:24;4.35;;;2.85;;
5646;SDS011;2845;48.626;9.362;2023-07-29T14:07:00;4.03;;;2.25;;
5646;SDS011;2845;48.626;9.362;2023-07-29T14:09:35;3.88;;;2.25;;
5646;SDS011;2845;48.626;9.362;2023-07-29T14:12:10;3.03;;;1.85;;
5646;SDS011;2845;48.626;9.362;2023-07-29T14:14:47;3.80;;;1.92;;
5646;SDS011;2845;48.626;9.362;2023-07-29T14:17:21;3.67;;;1.90;;
5646;SDS011;2845;48.626;9.362;2023-07-29T14:19:55;4.03;;;1.77;;
5646;SDS011;2845;48.626;9.362;2023-07-29T14:22:31;3.28;;;1.77;;
5646;SDS011;2845;48.626;9.362;2023-07-29T14:25:05;2.88;;;1.77;;
5646;SDS011;2845;48.626;9.362;2023-07-29T14:27:41;3.22;;;1.67;;
5646;SDS011;2845;48.626;9.362;2023-07-29T14:30:15;3.10;;;1.50;;
5646;SDS011;2845;48.626;9.362;2023-07-29T14:32:49;3.00;;;1.50;;
5646;SDS011;2845;48.626;9.362;2023-07-29T14:35:24;3.00;;;1.60;;
5646;SDS011;2845;48.626;9.362;2023-07-29T14:37:59;2.38;;;1.50;;
5646;SDS011;2845;48.626;9.362;2023-07-29T14:40:34;2.10;;;1.35;;
5646;SDS011;2845;48.626;9.362;2023-07-29T14:43:08;1.55;;;1.10;;
5646;SDS011;2845;48.626;9.362;2023-07-29T14:45:42;2.70;;;1.20;;
5646;SDS011;2845;48.626;9.362;2023-07-29T14:48:17;3.00;;;1.48;;
5646;SDS011;2845;48.626;9.362;2023-07-29T14:50:51;2.10;;;1.30;;
5646;SDS011;2845;48.626;9.362;2023-07-29T14:53:26;1.73;;;1.30;;
5646;SDS011;2845;48.626;9.362;2023-07-29T14:56:00;1.63;;;1.10;;
5646;SDS011;2845;48.626;9.362;2023-07-29T14:58:35;2.20;;;1.48;;
5646;SDS011;2845;48.626;9.362;2023-07-29T15:01:09;1.73;;;1.00;;
5646;SDS011;2845;48.626;9.362;2023-07-29T15:03:43;2.40;;;1.48;;
5646;SDS011;2845;48.626;9.362;2023-07-29T15:06:18;1.92;;;1.17;;
5646;SDS011;2845;48.626;9.362;2023-07-29T15:08:54;2.80;;;1.45;;
5646;SDS011;2845;48.626;9.362;2023-07-29T15:11:28;3.38;;;1.52;;
5646;SDS011;2845;48.626;9.362;2023-07-29T15:14:02;2.50;;;1.27;;
5646;SDS011;2845;48.626;9.362;2023-07-29T15:16:36;3.13;;;1.40;;
5646;SDS011;2845;48.626;9.362;2023-07-29T15:19:12;1.88;;;1.00;;
5646;SDS011;2845;48.626;9.362;2023-07-29T15:21:50;1.83;;;1.30;;
5646;SDS011;2845;48.626;9.362;2023-07-29T15:24:25;2.53;;;1.40;;
5646;SDS011;2845;48.626;9.362;2023-07-29T15:27:03;2.95;;;1.50;;
5646;SDS011;2845;48.626;9.362;2023-07-29T15:29:37;2.13;;;1.10;;
5646;SDS011;2845;48.626;9.362;2023-07-29T15:32:12;2.17;;;1.20;;
5646;SDS011;2845;48.626;9.362;2023-07-29T15:34:46;1.50;;;1.10;;
5646;SDS011;2845;48.626;9.362;2023-07-29T15:37:21;2.03;;;1.10;;
5646;SDS011;2845;48.626;9.362;2023-07-29T15:39:56;2.88;;;1.30;;
5646;SDS011;2845;48.626;9.362;2023-07-29T15:42:31;2.88;;;1.00;;
5646;SDS011;2845;48.626;9.362;2023-07-29T15:45:05;1.60;;;1.10;;
5646;SDS011;2845;48.626;9.362;2023-07-29T15:47:41;1.80;;;1.10;;
5646;SDS011;2845;48.626;9.362;2023-07-29T15:50:15;1.85;;;1.02;;
5646;SDS011;2845;48.626;9.362;2023-07-29T15:52:50;2.30;;;1.33;;
5646;SDS011;2845;48.626;9.362;2023-07-29T15:55:25;2.30;;;1.20;;
5646;SDS011;2845;48.626;9.362;2023-07-29T15:57:59;1.67;;;1.02;;
5646;SDS011;2845;48.626;9.362;2023-07-29T16:00:34;2.22;;;1.00;;
5646;SDS011;2845;48.626;9.362;2023-07-29T16:03:08;1.92;;;1.00;;
5646;SDS011;2845;48.626;9.362;2023-07-29T16:05:42;1.92;;;1.10;;
5646;SDS011;2845;48.626;9.362;2023-07-29T16:08:19;1.75;;;1.10;;